Time;durP1;ratioP1;P1;durP2;ratioP2;P2;SDS_P1;SDS_P2;PMS_P1;PMS_P2;Temp;Humidity;BMP_temperature;BMP_pressure;BME280_temperature;BME280_humidity;BME280_pressure;Samples;Min_cycle;Max_cycle;Signal;HPM_P1;HPM_P2
2022/11/25 00:01:19;;;;;;;8.93;5.03;;;;;;;4.79;100.00;101355.63;6097048;28;20253;-85
2022/11/25 00:04:42;;;;;;;8.40;4.33;;;;;;;4.92;100.00;101357.59;6090053;28;20243;-84
2022/11/25 00:08:05;;;;;;;5.87;4.70;;;;;;;4.88;100.00;101348.03;6103192;29;20246;-88
2022/11/25 00:12:28;;;;;;;14.00;7.27;;;;;;;4.69;100.00;101357.09;6085261;29;20323;-88
2022/11/25 00:16:01;;;;;;;7.13;5.87;;;;;;;4.67;100.00;101348.31;6071914;29;20240;-86
2022/11/25 00:19:28;;;;;;;9.87;5.60;;;;;;;4.72;100.00;101343.56;6072796;29;20225;-82
2022/11/25 00:23:45;;;;;;;10.20;6.40;;;;;;;4.67;100.00;101348.31;6099816;29;20232;-82
2022/11/25 00:27:08;;;;;;;14.63;6.17;;;;;;;4.72;100.00;101346.25;6098945;28;20510;-82
2022/11/25 00:30:28;;;;;;;9.67;5.87;;;;;;;4.78;100.00;101345.88;6091713;29;20236;-83
2022/11/25 00:34:06;;;;;;;13.83;6.23;;;;;;;4.67;100.00;101342.97;6086171;29;20606;-82
2022/11/25 00:37:35;;;;;;;12.33;6.47;;;;;;;4.88;100.00;101340.03;6087786;29;21387;-86
2022/11/25 00:45:07;;;;;;;7.50;6.03;;;;;;;4.75;100.00;101348.75;6084308;29;20235;-86
2022/11/25 00:48:28;;;;;;;8.10;6.00;;;;;;;4.75;100.00;101343.41;6084985;29;20236;-85
2022/11/25 00:51:53;;;;;;;25.40;7.77;;;;;;;4.82;100.00;101347.44;6098422;29;20236;-83
2022/11/25 00:55:14;;;;;;;10.50;6.30;;;;;;;4.94;100.00;101337.88;6090623;29;20239;-85
2022/11/25 00:58:36;;;;;;;9.40;5.10;;;;;;;4.92;100.00;101341.56;6077865;29;20239;-80
2022/11/25 01:01:57;;;;;;;7.80;5.60;;;;;;;4.82;100.00;101331.41;6099085;29;20236;-87
2022/11/25 01:05:20;;;;;;;10.17;5.67;;;;;;;4.84;100.00;101321.50;6088615;29;20264;-83
2022/11/25 01:08:43;;;;;;;26.00;6.97;;;;;;;4.67;100.00;101334.94;6071199;28;20251;-77
2022/11/25 01:12:04;;;;;;;9.23;6.40;;;;;;;4.85;100.00;101333.91;6080318;29;20241;-83
2022/11/25 01:15:36;;;;;;;13.17;8.20;;;;;;;4.76;100.00;101333.56;6074415;29;20240;-84
2022/11/25 01:19:04;;;;;;;10.23;6.60;;;;;;;4.68;100.00;101333.16;6075920;29;20235;-85
2022/11/25 01:22:27;;;;;;;8.97;6.13;;;;;;;4.91;100.00;101331.81;6098905;29;20232;-83
2022/11/25 01:25:52;;;;;;;9.60;5.93;;;;;;;4.99;100.00;101329.56;6110685;28;20224;-85
2022/11/25 01:29:15;;;;;;;10.93;6.60;;;;;;;5.16;100.00;101335.66;6093885;29;20252;-81
2022/11/25 01:32:39;;;;;;;10.67;5.93;;;;;;;5.03;100.00;101334.63;6095949;29;20233;-80
2022/11/25 01:36:25;;;;;;;8.87;5.93;;;;;;;5.02;99.86;101324.91;6087006;29;20937;-81
2022/11/25 01:39:46;;;;;;;9.00;5.07;;;;;;;5.11;99.62;101321.69;6096719;29;20240;-83
2022/11/25 01:43:19;;;;;;;10.47;6.73;;;;;;;4.88;99.61;101315.03;6074183;29;20236;-80
2022/11/25 01:47:05;;;;;;;8.40;5.63;;;;;;;4.68;99.85;101322.47;6076300;28;20240;-81
2022/11/25 01:50:52;;;;;;;6.63;5.73;;;;;;;4.63;100.00;101316.56;6074033;29;20661;-79
2022/11/25 01:54:23;;;;;;;10.17;6.60;;;;;;;4.68;100.00;101312.66;6058233;28;20544;-84
2022/11/25 01:57:58;;;;;;;9.07;7.40;;;;;;;4.58;100.00;101305.25;6081782;29;20241;-78
2022/11/25 02:01:23;;;;;;;9.27;4.87;;;;;;;4.53;100.00;101310.00;6090332;28;20327;-80
2022/11/25 02:04:45;;;;;;;15.67;8.73;;;;;;;4.50;100.00;101310.19;6072000;28;20744;-82
2022/11/25 02:08:10;;;;;;;10.00;5.80;;;;;;;4.53;100.00;101308.19;6093820;29;20224;-84
2022/11/25 02:11:39;;;;;;;8.10;6.77;;;;;;;4.56;100.00;101321.38;6070759;29;20229;-82
2022/11/25 02:15:06;;;;;;;7.57;5.13;;;;;;;4.50;100.00;101318.19;6064962;29;20236;-80
2022/11/25 02:18:28;;;;;;;15.87;8.63;;;;;;;4.48;100.00;101312.09;6085784;29;20270;-82
2022/11/25 02:25:50;;;;;;;9.00;6.40;;;;;;;4.40;100.00;101317.84;6069541;28;20719;-79
2022/11/25 02:29:15;;;;;;;10.10;7.23;;;;;;;4.44;100.00;101323.88;6065879;29;20224;-80
2022/11/25 02:32:45;;;;;;;6.83;6.03;;;;;;;4.35;100.00;101325.25;6081696;29;20233;-81
2022/11/25 02:36:12;;;;;;;7.90;5.93;;;;;;;4.47;100.00;101321.88;6066940;29;20508;-81
2022/11/25 02:39:34;;;;;;;12.37;5.57;;;;;;;4.41;100.00;101322.25;6082480;29;20239;-78
2022/11/25 02:43:00;;;;;;;24.27;6.30;;;;;;;4.22;100.00;101337.53;6095566;29;20233;-86
2022/11/25 02:46:23;;;;;;;8.70;6.50;;;;;;;4.25;100.00;101325.84;6084607;29;20244;-85
2022/11/25 02:49:46;;;;;;;6.87;5.33;;;;;;;4.28;100.00;101328.31;6086216;29;20309;-85
2022/11/25 02:53:07;;;;;;;7.50;5.53;;;;;;;4.35;100.00;101327.06;6086132;29;20244;-86
2022/11/25 02:56:55;;;;;;;9.30;7.03;;;;;;;4.31;100.00;101326.38;6097671;29;20241;-87
2022/11/25 03:00:26;;;;;;;8.30;5.70;;;;;;;4.36;100.00;101323.44;6093787;29;20228;-87
2022/11/25 03:07:23;;;;;;;7.33;5.60;;;;;;;4.40;100.00;101327.66;6091827;29;20228;-86
2022/11/25 03:10:49;;;;;;;7.73;5.57;;;;;;;4.41;100.00;101332.91;6092997;28;20288;-87
2022/11/25 03:14:19;;;;;;;6.47;5.20;;;;;;;4.30;100.00;101329.13;6060236;29;20679;-86
2022/11/25 03:21:38;;;;;;;9.17;6.53;;;;;;;4.27;100.00;101329.28;6100628;28;20232;-85
2022/11/25 03:25:01;;;;;;;6.80;6.03;;;;;;;4.30;100.00;101339.81;6087505;29;20233;-84
2022/11/25 03:28:23;;;;;;;12.37;7.07;;;;;;;4.27;100.00;101324.81;6102775;29;20225;-86
2022/11/25 03:31:52;;;;;;;9.37;6.97;;;;;;;4.34;100.00;101317.34;6082735;29;20248;-83
2022/11/25 03:35:17;;;;;;;7.50;6.60;;;;;;;4.27;100.00;101319.50;6077580;29;20320;-83
2022/11/25 03:38:39;;;;;;;10.47;6.93;;;;;;;4.19;100.00;101327.06;6085602;29;20256;-85
2022/11/25 03:42:04;;;;;;;13.20;7.57;;;;;;;4.38;100.00;101318.88;6092512;29;20237;-86
2022/11/25 03:45:32;;;;;;;12.13;7.47;;;;;;;4.33;100.00;101324.47;6095598;29;20286;-88
2022/11/25 03:48:59;;;;;;;13.50;8.63;;;;;;;4.50;100.00;101315.53;6082733;29;20241;-85
2022/11/25 03:52:33;;;;;;;11.70;7.30;;;;;;;4.31;100.00;101317.50;6091051;29;20236;-82
2022/11/25 03:56:01;;;;;;;9.40;8.40;;;;;;;4.08;100.00;101324.13;6089404;29;20319;-86
2022/11/25 03:59:31;;;;;;;15.37;7.27;;;;;;;4.11;100.00;101333.75;6074052;28;20240;-85
2022/11/25 04:02:52;;;;;;;16.00;9.43;;;;;;;4.15;100.00;101338.84;6088552;29;20237;-86
2022/11/25 04:06:30;;;;;;;8.90;6.73;;;;;;;4.08;100.00;101342.78;6094349;28;20233;-84
2022/11/25 04:09:59;;;;;;;8.27;6.67;;;;;;;4.15;100.00;101337.97;6088919;29;20228;-87
2022/11/25 04:13:25;;;;;;;10.00;6.50;;;;;;;4.07;100.00;101341.91;6076800;29;20590;-88
2022/11/25 04:17:12;;;;;;;9.93;6.47;;;;;;;4.29;100.00;101338.94;6099668;29;20237;-89
2022/11/25 04:20:39;;;;;;;8.53;5.33;;;;;;;4.19;100.00;101332.41;6075963;29;20253;-87
2022/11/25 04:24:02;;;;;;;9.07;5.60;;;;;;;4.11;100.00;101328.44;6101547;29;20321;-87
2022/11/25 04:27:28;;;;;;;5.47;4.30;;;;;;;4.19;100.00;101320.84;6078182;29;20233;-85
2022/11/25 04:31:13;;;;;;;5.50;5.00;;;;;;;4.22;100.00;101323.34;6077059;29;20228;-87
2022/11/25 04:34:37;;;;;;;8.00;6.23;;;;;;;4.32;99.64;101316.56;6095569;29;20311;-87
2022/11/25 04:38:23;;;;;;;8.13;5.60;;;;;;;4.16;100.00;101311.22;6101350;28;20243;-87
2022/11/25 04:42:30;;;;;;;8.83;5.40;;;;;;;4.10;100.00;101326.69;6086673;29;20232;-87
2022/11/25 04:45:41;;;;;;;6.37;5.17;;;;;;;4.11;100.00;101325.75;6069949;29;20775;-86
2022/11/25 04:49:02;;;;;;;6.13;4.93;;;;;;;4.05;100.00;101324.25;6066035;29;20296;-86
2022/11/25 04:52:35;;;;;;;6.50;4.13;;;;;;;4.04;100.00;101327.91;6097951;28;20217;-86
2022/11/25 04:56:00;;;;;;;7.07;4.87;;;;;;;4.12;100.00;101325.66;6082499;29;20224;-86
2022/11/25 05:03:41;;;;;;;8.83;4.30;;;;;;;4.21;99.88;101327.84;6085374;29;20244;-85
2022/11/25 05:07:03;;;;;;;9.93;4.83;;;;;;;4.14;99.41;101318.44;6074042;29;20236;-85
2022/11/25 05:10:25;;;;;;;9.30;5.83;;;;;;;4.19;100.00;101327.06;6078316;29;20697;-85
2022/11/25 05:13:46;;;;;;;7.73;6.23;;;;;;;4.32;99.62;101322.75;6076499;29;20262;-86
2022/11/25 05:17:10;;;;;;;5.87;4.33;;;;;;;4.26;99.57;101323.09;6076798;29;20237;-84
2022/11/25 05:20:31;;;;;;;7.57;5.07;;;;;;;4.21;99.40;101330.50;6065499;29;20631;-86
2022/11/25 05:23:56;;;;;;;8.07;4.87;;;;;;;4.24;100.00;101337.44;6067798;29;20241;-86
2022/11/25 05:27:18;;;;;;;6.70;5.13;;;;;;;4.23;100.00;101336.63;6075724;29;20236;-84
2022/11/25 05:30:39;;;;;;;7.13;4.87;;;;;;;4.21;100.00;101329.63;6081826;29;20235;-86
2022/11/25 05:34:01;;;;;;;9.53;5.83;;;;;;;4.16;100.00;101324.53;6076263;29;20223;-84
2022/11/25 05:37:23;;;;;;;6.50;5.63;;;;;;;4.23;99.83;101317.94;6099830;29;20685;-84
2022/11/25 05:40:50;;;;;;;8.33;6.87;;;;;;;4.30;100.00;101318.47;6071849;29;20228;-85
2022/11/25 05:44:13;;;;;;;7.13;5.17;;;;;;;4.42;99.15;101325.78;6073320;29;20276;-84
2022/11/25 05:47:35;;;;;;;6.73;4.93;;;;;;;4.38;99.48;101332.22;6081416;29;20217;-84
2022/11/25 05:50:59;;;;;;;8.60;5.60;;;;;;;4.40;98.81;101323.16;6078699;29;20246;-83
2022/11/25 05:54:23;;;;;;;6.13;5.07;;;;;;;4.37;98.87;101327.81;6070627;28;20236;-84
2022/11/25 05:57:46;;;;;;;9.43;6.53;;;;;;;4.41;98.98;101327.56;6081509;28;20315;-82
2022/11/25 06:01:09;;;;;;;6.57;4.30;;;;;;;4.41;98.99;101316.91;6064795;29;20519;-84
2022/11/25 06:04:30;;;;;;;7.90;5.33;;;;;;;4.49;99.06;101329.81;6065856;29;20245;-85
2022/11/25 06:07:52;;;;;;;9.83;7.27;;;;;;;4.47;98.59;101326.34;6092084;29;20233;-85
2022/11/25 06:11:17;;;;;;;7.77;5.57;;;;;;;4.52;98.47;101322.50;6070712;29;20256;-86
2022/11/25 06:14:40;;;;;;;7.33;5.83;;;;;;;4.52;98.84;101318.97;6083561;29;20236;-87
2022/11/25 06:18:01;;;;;;;4.43;3.60;;;;;;;4.57;98.47;101307.06;6081836;29;20232;-86
2022/11/25 06:21:24;;;;;;;4.87;4.17;;;;;;;4.62;97.91;101314.81;6074679;29;20531;-87
2022/11/25 06:24:46;;;;;;;8.07;4.50;;;;;;;4.52;97.46;101316.28;6097534;29;20314;-87
2022/11/25 06:28:08;;;;;;;8.57;4.70;;;;;;;4.48;98.11;101312.94;6078172;29;20460;-86
2022/11/25 06:31:31;;;;;;;5.80;4.87;;;;;;;4.50;97.88;101321.72;6077966;29;20233;-86
2022/11/25 06:35:04;;;;;;;6.20;5.00;;;;;;;4.46;97.97;101330.00;6073133;29;20236;-87
2022/11/25 06:38:34;;;;;;;5.37;4.03;;;;;;;4.39;98.28;101331.28;6070414;28;20236;-86
2022/11/25 06:41:56;;;;;;;5.97;4.03;;;;;;;4.44;98.75;101326.56;6072167;29;20321;-84
2022/11/25 06:45:17;;;;;;;6.07;4.93;;;;;;;4.45;98.67;101323.78;6067308;29;20355;-73
2022/11/25 06:48:40;;;;;;;6.33;4.57;;;;;;;4.59;98.16;101333.69;6068362;28;20578;-75
2022/11/25 06:52:00;;;;;;;4.23;3.53;;;;;;;4.59;97.60;101328.34;6066055;29;20354;-73
2022/11/25 06:55:22;;;;;;;8.67;4.47;;;;;;;4.57;97.53;101349.78;6073872;29;20520;-80
2022/11/25 06:58:43;;;;;;;9.13;5.23;;;;;;;4.50;97.75;101339.53;6070231;29;20267;-76
2022/11/25 07:02:04;;;;;;;5.00;3.70;;;;;;;4.55;97.99;101335.66;6076579;29;20264;-77
2022/11/25 07:05:27;;;;;;;7.90;5.43;;;;;;;4.42;98.70;101334.63;6087381;29;20259;-75
2022/11/25 07:08:48;;;;;;;5.73;4.20;;;;;;;4.50;98.09;101337.75;6080747;29;20228;-74
2022/11/25 07:12:11;;;;;;;10.83;3.93;;;;;;;4.52;98.25;101335.84;6091766;29;20757;-73
2022/11/25 07:15:34;;;;;;;7.13;5.07;;;;;;;4.83;98.02;101334.94;6073051;29;20588;-71
2022/11/25 07:18:55;;;;;;;6.97;4.87;;;;;;;4.70;97.30;101347.28;6065966;29;20240;-73
2022/11/25 07:22:17;;;;;;;5.60;4.33;;;;;;;4.68;97.49;101362.53;6084756;29;20240;-74
2022/11/25 07:25:38;;;;;;;4.83;3.57;;;;;;;4.65;97.88;101363.56;6084168;29;20610;-75
2022/11/25 07:29:02;;;;;;;6.43;4.60;;;;;;;4.63;97.77;101354.75;6068348;28;20248;-75
2022/11/25 07:32:24;;;;;;;5.53;4.33;;;;;;;4.77;97.68;101357.53;6086480;29;20323;-78
2022/11/25 07:35:44;;;;;;;4.23;3.47;;;;;;;4.88;97.04;101364.06;6065749;29;20233;-73
2022/11/25 07:39:09;;;;;;;7.20;4.50;;;;;;;4.94;96.86;101369.06;6067408;29;20323;-74
2022/11/25 07:42:30;;;;;;;4.53;3.83;;;;;;;4.95;97.03;101371.63;6079171;29;20239;-73
2022/11/25 07:45:51;;;;;;;7.43;3.67;;;;;;;4.91;96.81;101380.78;6063613;29;20373;-74
2022/11/25 07:49:13;;;;;;;5.43;3.67;;;;;;;4.94;96.93;101380.59;6066775;29;20651;-76
2022/11/25 07:52:37;;;;;;;6.43;3.43;;;;;;;5.11;96.85;101369.78;6075239;29;20236;-75
2022/11/25 07:56:02;;;;;;;9.53;3.47;;;;;;;5.06;96.17;101363.00;6057508;29;20232;-74
2022/11/25 07:59:23;;;;;;;4.13;3.50;;;;;;;5.07;96.10;101375.41;6070169;29;20335;-81
2022/11/25 08:02:44;;;;;;;6.40;3.90;;;;;;;5.08;96.67;101378.00;6082450;29;20256;-72
2022/11/25 08:06:08;;;;;;;9.20;4.43;;;;;;;5.03;96.16;101384.56;6073658;29;20224;-73
2022/11/25 08:09:29;;;;;;;7.77;4.73;;;;;;;5.07;96.28;101397.63;6081006;29;20275;-72
2022/11/25 08:12:51;;;;;;;6.80;3.43;;;;;;;5.13;96.25;101402.63;6082970;28;21890;-72
2022/11/25 08:16:14;;;;;;;8.00;3.83;;;;;;;5.36;95.62;101382.59;6091674;28;20228;-74
2022/11/25 08:19:35;;;;;;;6.87;3.77;;;;;;;5.38;95.17;101383.34;6078806;29;20248;-73
2022/11/25 08:22:56;;;;;;;7.70;4.13;;;;;;;5.53;94.52;101388.63;6084190;28;20607;-74
2022/11/25 08:26:21;;;;;;;10.30;4.77;;;;;;;5.31;94.68;101385.53;6083636;29;20631;-76
2022/11/25 08:29:43;;;;;;;6.03;3.93;;;;;;;5.36;94.99;101387.94;6082469;28;20231;-74
2022/11/25 08:33:06;;;;;;;7.17;3.87;;;;;;;5.18;95.37;101392.53;6085577;28;20237;-75
2022/11/25 08:36:29;;;;;;;6.80;3.80;;;;;;;5.34;95.09;101385.34;6081497;28;24603;-74
2022/11/25 08:39:50;;;;;;;5.40;3.30;;;;;;;5.47;94.89;101389.00;6078871;28;20537;-75
2022/11/25 08:43:10;;;;;;;5.67;3.83;;;;;;;5.49;94.55;101391.59;6090033;29;20228;-75
2022/11/25 08:46:36;;;;;;;7.73;4.77;;;;;;;5.26;94.80;101390.28;6087240;28;20244;-73
2022/11/25 08:49:57;;;;;;;6.30;3.97;;;;;;;5.31;94.52;101390.00;6095180;28;20251;-73
2022/11/25 08:53:18;;;;;;;3.90;2.80;;;;;;;5.43;94.63;101394.63;6072615;29;20241;-75
2022/11/25 08:56:39;;;;;;;6.50;2.83;;;;;;;5.34;94.98;101393.34;6076895;29;20237;-73
2022/11/25 09:00:00;;;;;;;9.53;3.53;;;;;;;5.31;94.83;101396.22;6086122;29;20336;-73
2022/11/25 09:03:23;;;;;;;3.50;3.20;;;;;;;5.34;95.28;101392.50;6065147;29;20290;-78
2022/11/25 09:06:44;;;;;;;6.60;3.70;;;;;;;5.27;94.92;101392.00;6076789;29;20243;-72
2022/11/25 09:10:07;;;;;;;6.93;3.47;;;;;;;5.35;95.16;101397.75;6063445;29;20228;-77
2022/11/25 09:13:28;;;;;;;6.30;3.70;;;;;;;5.62;94.64;101397.94;6065835;28;20228;-65
2022/11/25 09:16:49;;;;;;;5.20;3.53;;;;;;;5.47;94.61;101415.75;6092977;29;20225;-76
2022/11/25 09:20:12;;;;;;;4.00;3.43;;;;;;;5.63;94.79;101419.22;6094500;28;20248;-77
2022/11/25 09:23:33;;;;;;;5.10;4.23;;;;;;;5.45;94.87;101420.31;6068972;28;20236;-75
2022/11/25 09:26:54;;;;;;;5.43;3.80;;;;;;;5.55;95.34;101424.16;6068558;29;20239;-80
2022/11/25 09:30:15;;;;;;;3.97;2.77;;;;;;;5.52;94.95;101431.53;6087881;29;20235;-77
2022/11/25 09:33:37;;;;;;;3.57;2.93;;;;;;;5.45;95.18;101431.00;6077597;29;20228;-78
2022/11/25 09:36:59;;;;;;;4.43;3.27;;;;;;;5.30;96.05;101431.06;6087020;28;20245;-79
2022/11/25 09:40:26;;;;;;;8.57;4.30;;;;;;;5.28;96.36;101439.16;6070292;29;20584;-76
2022/11/25 09:47:45;;;;;;;9.83;4.80;;;;;;;5.26;97.36;101442.84;6072486;28;20245;-72
2022/11/25 09:51:17;;;;;;;6.33;3.30;;;;;;;5.14;97.46;101431.06;6057888;29;20236;-75
2022/11/25 09:54:43;;;;;;;5.47;4.63;;;;;;;5.24;97.89;101437.59;6069055;29;20235;-73
2022/11/25 09:58:16;;;;;;;5.33;2.83;;;;;;;5.15;97.97;101437.28;6083799;29;20240;-72
2022/11/25 10:01:46;;;;;;;6.87;3.70;;;;;;;5.36;98.10;101438.72;6078252;29;20271;-73
2022/11/25 10:05:15;;;;;;;5.53;3.50;;;;;;;5.45;98.26;101441.72;6064019;29;20612;-73
2022/11/25 10:08:40;;;;;;;4.00;3.13;;;;;;;5.33;97.85;101450.44;6070348;29;20228;-73
2022/11/25 10:12:05;;;;;;;4.53;3.90;;;;;;;5.38;98.32;101440.34;6071755;29;20327;-75
2022/11/25 10:15:31;;;;;;;5.60;3.80;;;;;;;5.50;97.98;101439.63;6054494;29;20232;-75
2022/11/25 10:18:59;;;;;;;3.90;3.37;;;;;;;5.55;97.12;101448.22;6069797;29;20259;-73
2022/11/25 10:22:26;;;;;;;4.33;3.93;;;;;;;5.59;97.17;101449.78;6080987;28;23223;-77
2022/11/25 10:25:52;;;;;;;4.47;3.57;;;;;;;5.52;97.54;101453.78;6068643;29;20229;-74
2022/11/25 10:29:23;;;;;;;4.93;4.00;;;;;;;5.44;97.83;101447.16;6077483;28;20235;-75
2022/11/25 10:32:50;;;;;;;6.73;3.50;;;;;;;5.40;98.47;101454.47;6095256;29;20228;-75
2022/11/25 10:36:18;;;;;;;6.03;3.77;;;;;;;5.47;98.54;101452.31;6078690;29;20229;-74
2022/11/25 10:39:38;;;;;;;5.27;3.57;;;;;;;5.67;98.16;101452.00;6076570;29;20965;-73
2022/11/25 10:43:02;;;;;;;8.47;4.67;;;;;;;5.99;97.71;101448.28;6084871;29;20319;-74
2022/11/25 10:46:32;;;;;;;5.93;4.07;;;;;;;6.00;97.48;101449.16;6086469;29;20224;-71
2022/11/25 10:50:06;;;;;;;3.47;3.07;;;;;;;6.20;96.36;101449.66;6068380;29;20244;-73
2022/11/25 10:53:29;;;;;;;3.10;2.70;;;;;;;6.21;96.19;101456.75;6084698;28;20256;-74
2022/11/25 10:56:52;;;;;;;8.00;3.90;;;;;;;6.23;95.84;101462.00;6098122;29;20232;-76
2022/11/25 11:00:32;;;;;;;5.50;3.43;;;;;;;6.09;95.95;101461.97;6093203;28;20236;-76
2022/11/25 11:04:03;;;;;;;6.33;3.73;;;;;;;6.04;96.56;101456.91;6077145;29;20233;-76
2022/11/25 11:07:25;;;;;;;4.50;2.87;;;;;;;6.06;96.72;101462.16;6090167;29;20229;-74
2022/11/25 11:10:47;;;;;;;19.87;4.23;;;;;;;6.03;96.75;101465.88;6067853;29;20511;-77
2022/11/25 11:14:14;;;;;;;4.97;3.40;;;;;;;6.16;96.58;101456.16;6062105;29;20238;-78
2022/11/25 11:17:36;;;;;;;4.50;3.97;;;;;;;6.24;96.74;101461.91;6084425;28;20229;-75
2022/11/25 11:21:00;;;;;;;5.23;3.30;;;;;;;6.43;95.68;101465.16;6074009;29;20237;-73
2022/11/25 11:24:27;;;;;;;14.07;4.37;;;;;;;6.41;95.84;101459.03;6069180;29;20236;-71
2022/11/25 11:27:48;;;;;;;6.63;3.57;;;;;;;6.42;95.79;101467.94;6087703;28;20260;-73
2022/11/25 11:31:19;;;;;;;8.00;3.00;;;;;;;6.19;96.18;101464.00;6075094;28;20232;-73
2022/11/25 11:34:52;;;;;;;4.50;3.47;;;;;;;6.20;96.94;101476.41;6067763;29;20237;-78
2022/11/25 11:38:31;;;;;;;4.27;3.30;;;;;;;6.18;97.12;101467.63;6088672;29;20283;-77
2022/11/25 11:42:01;;;;;;;6.03;3.83;;;;;;;6.14;97.49;101471.44;6090542;28;20229;-76
2022/11/25 11:45:41;;;;;;;12.90;4.57;;;;;;;6.22;97.75;101466.47;6090195;29;20633;-76
2022/11/25 11:49:20;;;;;;;5.37;3.17;;;;;;;6.23;97.59;101472.69;6081947;29;20245;-74
2022/11/25 11:52:54;;;;;;;5.73;4.10;;;;;;;6.20;97.82;101479.09;6084097;29;20619;-74
2022/11/25 11:56:25;;;;;;;6.23;3.77;;;;;;;6.26;98.17;101476.03;6088306;29;20233;-74
2022/11/25 11:59:48;;;;;;;6.27;4.80;;;;;;;6.35;97.51;101482.66;6072826;29;20638;-74
2022/11/25 12:03:14;;;;;;;6.10;4.20;;;;;;;6.50;97.73;101489.75;6079537;29;20241;-77
2022/11/25 12:06:38;;;;;;;4.57;3.83;;;;;;;6.35;97.50;101498.72;6047855;29;20347;-74
2022/11/25 12:10:04;;;;;;;4.57;3.57;;;;;;;6.29;97.80;101489.25;6084180;28;20236;-74
2022/11/25 12:13:36;;;;;;;13.00;3.87;;;;;;;6.44;98.21;101490.13;6080633;28;20220;-73
2022/11/25 12:16:59;;;;;;;6.17;3.83;;;;;;;6.43;97.54;101485.72;6087900;29;20228;-76
2022/11/25 12:20:33;;;;;;;9.83;5.07;;;;;;;6.39;98.45;101490.41;6068170;29;20229;-75
2022/11/25 12:24:02;;;;;;;4.47;3.47;;;;;;;6.43;98.37;101480.34;6077420;28;20232;-75
2022/11/25 12:27:27;;;;;;;7.63;3.83;;;;;;;6.51;98.31;101479.91;6084178;29;20232;-74
2022/11/25 12:31:02;;;;;;;6.57;3.60;;;;;;;6.66;98.40;101482.47;6079083;29;20224;-75
2022/11/25 12:34:31;;;;;;;7.40;4.17;;;;;;;6.82;97.73;101487.72;6073556;29;20303;-75
2022/11/25 12:37:58;;;;;;;6.30;3.20;;;;;;;7.02;96.22;101481.94;6087892;28;20263;-76
2022/11/25 12:41:26;;;;;;;3.80;3.17;;;;;;;6.99;96.44;101490.16;6068468;29;20235;-74
2022/11/25 12:44:57;;;;;;;6.50;4.33;;;;;;;7.19;96.27;101497.81;6064198;28;20283;-75
2022/11/25 12:48:19;;;;;;;5.70;3.63;;;;;;;7.21;95.01;101493.22;6088422;29;20224;-74
2022/11/25 12:51:54;;;;;;;10.43;4.90;;;;;;;7.22;96.56;101484.19;6081381;29;20501;-74
2022/11/25 12:55:23;;;;;;;8.30;3.67;;;;;;;7.25;95.74;101486.69;6067588;29;20359;-73
2022/11/25 12:58:59;;;;;;;8.57;3.70;;;;;;;7.19;95.71;101489.75;6079752;29;20610;-74
2022/11/25 13:02:37;;;;;;;5.43;3.47;;;;;;;7.19;96.08;101504.03;6079939;29;20236;-75
2022/11/25 13:06:30;;;;;;;9.43;4.20;;;;;;;7.31;95.48;101507.72;6085214;29;20236;-75
2022/11/25 13:10:17;;;;;;;4.43;3.80;;;;;;;7.40;95.71;101506.28;6077369;29;20640;-75
2022/11/25 13:13:49;;;;;;;7.27;3.77;;;;;;;7.23;96.02;101502.88;6077907;29;20589;-75
2022/11/25 13:17:14;;;;;;;6.33;4.07;;;;;;;7.03;96.72;101510.50;6085213;29;20225;-75
2022/11/25 13:20:47;;;;;;;6.30;3.73;;;;;;;7.05;97.26;101516.59;6090043;28;20240;-77
2022/11/25 13:24:27;;;;;;;6.27;3.73;;;;;;;7.00;97.80;101518.72;6086765;28;20223;-75
2022/11/25 13:27:57;;;;;;;4.60;4.13;;;;;;;7.15;97.95;101525.78;6085353;29;20736;-73
2022/11/25 13:31:22;;;;;;;6.67;4.07;;;;;;;7.09;98.58;101529.69;6092246;29;20227;-74
2022/11/25 13:34:43;;;;;;;7.80;4.40;;;;;;;7.21;97.92;101530.75;6090828;29;20315;-75
2022/11/25 13:38:35;;;;;;;3.00;2.73;;;;;;;7.08;98.60;101538.72;6076623;28;20252;-74
2022/11/25 13:42:03;;;;;;;5.77;3.83;;;;;;;7.05;98.97;101538.88;6078147;29;20248;-74
2022/11/25 13:45:27;;;;;;;4.27;3.33;;;;;;;7.20;98.42;101531.69;6091830;28;20239;-75
2022/11/25 13:48:48;;;;;;;9.70;4.70;;;;;;;7.21;98.84;101528.06;6068185;28;20264;-75
2022/11/25 13:52:32;;;;;;;5.87;3.23;;;;;;;7.34;98.23;101531.69;6097209;29;20233;-74
2022/11/25 13:56:11;;;;;;;6.57;3.13;;;;;;;7.43;97.98;101539.09;6066339;29;20228;-74
2022/11/25 13:59:38;;;;;;;5.37;3.43;;;;;;;7.62;97.91;101536.94;6088895;29;20752;-74
2022/11/25 14:03:42;;;;;;;10.17;4.97;;;;;;;7.72;97.72;101546.09;6084261;28;20240;-73
2022/11/25 14:07:16;;;;;;;6.63;3.73;;;;;;;7.77;97.69;101560.09;6087893;29;20244;-74
2022/11/25 14:10:45;;;;;;;5.93;3.33;;;;;;;7.66;97.01;101557.25;6065886;29;20553;-73
2022/11/25 14:14:29;;;;;;;4.10;2.70;;;;;;;7.75;97.47;101555.78;6076372;29;20274;-73
2022/11/25 14:18:15;;;;;;;4.00;3.43;;;;;;;7.56;97.94;101560.63;6071831;29;20462;-73
2022/11/25 14:21:55;;;;;;;6.13;3.73;;;;;;;7.80;97.71;101575.97;6076957;29;20807;-73
2022/11/25 14:25:21;;;;;;;4.70;3.10;;;;;;;7.90;97.47;101570.88;6076768;28;20227;-73
2022/11/25 14:28:48;;;;;;;3.90;2.47;;;;;;;7.84;97.48;101579.34;6068678;29;20232;-72
2022/11/25 14:32:14;;;;;;;4.33;3.40;;;;;;;7.74;97.29;101579.06;6077409;29;20241;-73
2022/11/25 14:35:42;;;;;;;3.60;2.90;;;;;;;7.72;97.41;101578.31;6086554;29;20617;-73
2022/11/25 14:39:05;;;;;;;6.07;3.33;;;;;;;7.66;98.09;101593.94;6078066;28;20220;-73
2022/11/25 14:42:32;;;;;;;8.80;4.07;;;;;;;7.70;97.43;101604.38;6084678;29;20379;-73
2022/11/25 14:46:09;;;;;;;5.63;2.80;;;;;;;7.80;97.74;101602.81;6090107;29;20232;-72
2022/11/25 14:49:43;;;;;;;7.77;3.63;;;;;;;7.77;97.58;101597.66;6088575;29;20231;-73
2022/11/25 14:53:07;;;;;;;9.00;3.20;;;;;;;7.77;98.07;101603.03;6091745;29;20228;-72
2022/11/25 14:56:31;;;;;;;25.53;16.50;;;;;;;7.79;97.53;101611.84;6085787;29;20229;-73
2022/11/25 14:59:54;;;;;;;7.70;5.97;;;;;;;7.77;97.70;101608.41;6086053;29;20240;-73
2022/11/25 15:03:18;;;;;;;17.13;10.97;;;;;;;7.91;97.66;101616.41;6071946;29;20236;-73
2022/11/25 15:06:41;;;;;;;21.43;14.80;;;;;;;7.93;97.59;101618.97;6072005;29;20283;-73
2022/11/25 15:10:05;;;;;;;13.50;5.23;;;;;;;7.76;98.77;101627.28;6092537;28;20232;-73
2022/11/25 15:13:33;;;;;;;7.40;4.43;;;;;;;7.79;97.99;101630.63;6078140;29;20260;-73
2022/11/25 15:16:55;;;;;;;18.03;14.50;;;;;;;7.82;98.42;101622.34;6093148;29;20235;-73
2022/11/25 15:20:16;;;;;;;18.53;10.57;;;;;;;7.85;98.36;101627.53;6082434;28;20229;-73
2022/11/25 15:23:38;;;;;;;13.93;8.23;;;;;;;7.93;97.28;101633.25;6084858;28;20232;-73
2022/11/25 15:27:02;;;;;;;8.83;4.70;;;;;;;7.92;98.40;101634.25;6094644;29;20509;-73
2022/11/25 15:30:25;;;;;;;10.57;4.37;;;;;;;7.94;98.20;101639.50;6089442;29;20532;-73
2022/11/25 15:33:50;;;;;;;10.83;5.50;;;;;;;7.91;98.39;101639.69;6084674;29;20284;-73
2022/11/25 15:37:11;;;;;;;10.03;6.80;;;;;;;8.04;97.93;101644.16;6096275;28;20237;-73
2022/11/25 15:40:36;;;;;;;13.63;9.13;;;;;;;8.03;97.83;101645.13;6091979;29;20236;-72
2022/11/25 15:44:01;;;;;;;19.40;11.97;;;;;;;8.02;97.78;101654.16;6082510;29;20248;-73
2022/11/25 15:47:24;;;;;;;15.83;9.43;;;;;;;8.09;97.88;101655.44;6093724;29;20282;-73
2022/11/25 15:50:45;;;;;;;12.10;9.70;;;;;;;8.07;97.03;101657.38;6063493;29;20246;-72
2022/11/25 15:54:15;;;;;;;9.83;8.83;;;;;;;8.02;97.45;101650.59;6074610;29;20228;-73
2022/11/25 15:57:38;;;;;;;7.53;4.20;;;;;;;8.03;97.62;101660.38;6085362;29;20264;-73
2022/11/25 16:01:02;;;;;;;12.70;4.60;;;;;;;7.92;97.94;101666.47;6085840;29;20232;-73
2022/11/25 16:04:24;;;;;;;3.80;3.30;;;;;;;7.93;98.80;101669.97;6076809;28;20240;-73
2022/11/25 16:08:14;;;;;;;5.77;4.63;;;;;;;7.98;98.50;101666.06;6090964;29;20233;-74
2022/11/25 16:11:45;;;;;;;4.03;3.47;;;;;;;8.04;97.65;101675.53;6077546;29;20229;-74
2022/11/25 16:15:39;;;;;;;14.97;8.60;;;;;;;7.95;98.78;101676.97;6087650;29;20223;-74
2022/11/25 16:19:20;;;;;;;11.30;7.23;;;;;;;8.05;98.87;101685.31;6079948;29;20239;-73
2022/11/25 16:22:42;;;;;;;7.93;5.13;;;;;;;8.03;98.95;101689.91;6087759;28;20236;-74
2022/11/25 16:26:05;;;;;;;4.53;4.13;;;;;;;8.05;98.84;101702.25;6081004;28;20233;-73
2022/11/25 16:29:31;;;;;;;7.10;5.03;;;;;;;8.13;98.08;101709.84;6074912;28;20236;-73
2022/11/25 16:32:53;;;;;;;15.50;9.50;;;;;;;8.18;98.39;101707.69;6083214;28;20233;-74